Time;durP1;ratioP1;P1;durP2;ratioP2;P2;SDS_P1;SDS_P2;PMS_P1;PMS_P2;Temp;Humidity;BMP_temperature;BMP_pressure;BME280_temperature;BME280_humidity;BME280_pressure;Samples;Min_cycle;Max_cycle;Signal;HPM_P1;HPM_P2
2021/03/23 00:02:14;;;;;;;10.17;4.07;;;5.40;99.90;;;;;;5043749;28;20171;-50
2021/03/23 00:04:40;;;;;;;6.77;3.70;;;5.40;99.90;;;;;;5047308;28;20180;-52
2021/03/23 00:07:05;;;;;;;4.73;3.43;;;5.40;99.90;;;;;;5044465;28;20231;-52
2021/03/23 00:09:31;;;;;;;4.00;3.10;;;5.40;99.90;;;;;;5056208;28;20189;-54
2021/03/23 00:11:56;;;;;;;10.37;3.10;;;5.40;99.90;;;;;;5057605;28;20209;-55
2021/03/23 00:14:22;;;;;;;6.77;2.93;;;5.40;99.90;;;;;;5042359;28;20885;-53
2021/03/23 00:16:47;;;;;;;8.13;3.47;;;5.40;99.90;;;;;;5053052;28;20183;-55
2021/03/23 00:19:14;;;;;;;3.60;3.00;;;5.30;99.90;;;;;;5043415;28;20168;-52
2021/03/23 00:21:41;;;;;;;7.17;2.60;;;5.30;99.90;;;;;;5045915;28;20600;-52
2021/03/23 00:24:06;;;;;;;5.03;2.60;;;5.30;99.90;;;;;;5038505;28;20273;-53
2021/03/23 00:26:33;;;;;;;6.77;2.30;;;5.30;99.90;;;;;;5046784;28;20251;-54
2021/03/23 00:28:58;;;;;;;4.50;2.10;;;5.20;99.90;;;;;;5036903;28;20290;-54
2021/03/23 00:31:30;;;;;;;6.60;3.03;;;5.10;99.90;;;;;;5056028;28;20385;-49
2021/03/23 00:33:56;;;;;;;5.70;2.20;;;5.10;99.90;;;;;;5063685;28;20206;-53
2021/03/23 00:36:26;;;;;;;5.17;2.17;;;5.00;99.90;;;;;;5063388;28;20190;-49
2021/03/23 00:38:54;;;;;;;4.60;2.17;;;5.00;99.90;;;;;;5051142;28;20670;-54
2021/03/23 00:41:19;;;;;;;5.27;2.00;;;5.20;99.90;;;;;;5054889;28;20257;-52
2021/03/23 00:43:45;;;;;;;5.63;1.60;;;5.10;99.90;;;;;;5065833;28;20258;-49
2021/03/23 00:46:11;;;;;;;3.87;1.53;;;5.00;99.90;;;;;;5037826;28;20889;-49
2021/03/23 00:48:36;;;;;;;7.47;1.80;;;5.00;99.90;;;;;;5063926;28;20230;-52
2021/03/23 00:51:02;;;;;;;2.90;1.70;;;4.90;99.90;;;;;;5061858;28;20166;-54
2021/03/23 00:53:28;;;;;;;3.43;1.67;;;5.00;99.90;;;;;;5063735;28;20565;-48
2021/03/23 00:55:54;;;;;;;2.67;1.40;;;5.00;99.90;;;;;;5042614;28;20191;-53
2021/03/23 00:58:19;;;;;;;1.63;0.90;;;4.90;99.90;;;;;;5044234;28;20274;-51
2021/03/23 01:00:45;;;;;;;3.23;1.20;;;4.90;99.90;;;;;;5040010;28;20217;-53
2021/03/23 01:03:10;;;;;;;2.60;1.40;;;4.90;99.90;;;;;;5047331;28;20266;-53
2021/03/23 01:05:36;;;;;;;3.87;1.00;;;4.80;99.90;;;;;;5045639;28;20611;-48
2021/03/23 01:08:03;;;;;;;2.27;1.70;;;4.90;99.90;;;;;;5042149;28;20269;-55
2021/03/23 01:10:32;;;;;;;1.97;1.27;;;4.80;99.90;;;;;;5050290;28;20597;-52
2021/03/23 01:12:58;;;;;;;4.50;1.37;;;4.80;99.90;;;;;;5063641;28;20179;-54
2021/03/23 01:15:27;;;;;;;3.20;1.40;;;4.80;99.90;;;;;;5047157;28;20987;-51
2021/03/23 01:17:54;;;;;;;5.27;1.50;;;4.80;99.90;;;;;;5055974;28;20202;-53
2021/03/23 01:20:22;;;;;;;2.03;1.37;;;4.80;99.90;;;;;;5063513;28;20163;-54
2021/03/23 01:22:48;;;;;;;4.33;1.07;;;4.80;99.90;;;;;;5065543;28;20198;-52
2021/03/23 01:25:15;;;;;;;2.80;1.47;;;4.90;99.90;;;;;;5062091;28;20410;-52
2021/03/23 01:27:41;;;;;;;3.60;1.07;;;4.80;99.90;;;;;;5031706;28;20560;-48
2021/03/23 01:30:09;;;;;;;5.87;1.63;;;4.80;99.90;;;;;;5020199;28;20218;-52
2021/03/23 01:32:34;;;;;;;1.47;1.33;;;4.80;99.90;;;;;;5031648;28;20664;-50
2021/03/23 01:35:00;;;;;;;3.00;1.10;;;4.90;99.90;;;;;;5047632;28;20182;-56
2021/03/23 01:37:26;;;;;;;1.47;1.30;;;4.80;99.90;;;;;;5043811;28;20613;-48
2021/03/23 01:39:51;;;;;;;4.93;1.30;;;4.80;99.90;;;;;;5051362;28;20187;-54
2021/03/23 01:42:18;;;;;;;3.00;1.00;;;4.80;99.90;;;;;;5041244;28;20195;-51
2021/03/23 01:44:45;;;;;;;2.90;1.10;;;4.80;99.90;;;;;;5044290;28;20182;-48
2021/03/23 01:47:11;;;;;;;4.90;1.70;;;4.90;99.90;;;;;;5027398;28;20265;-50
2021/03/23 01:49:42;;;;;;;4.00;1.23;;;4.80;99.90;;;;;;5054616;28;20255;-53
2021/03/23 01:52:14;;;;;;;5.17;1.40;;;4.90;99.90;;;;;;5060106;28;20191;-49
2021/03/23 01:54:46;;;;;;;2.33;1.27;;;4.80;99.90;;;;;;5064613;28;20648;-52
2021/03/23 01:57:13;;;;;;;2.60;1.70;;;4.90;99.90;;;;;;5052294;28;20212;-51
2021/03/23 01:59:45;;;;;;;2.47;1.50;;;4.80;99.90;;;;;;5044137;28;20211;-51
2021/03/23 02:02:11;;;;;;;2.50;1.70;;;4.90;99.90;;;;;;5028048;28;20203;-51
2021/03/23 02:04:37;;;;;;;2.13;1.93;;;4.80;99.90;;;;;;5054735;28;20183;-51
2021/03/23 02:07:03;;;;;;;3.03;2.03;;;4.80;99.90;;;;;;5061386;28;20244;-54
2021/03/23 02:09:31;;;;;;;4.83;1.83;;;4.90;99.90;;;;;;5056489;28;20266;-51
2021/03/23 02:12:03;;;;;;;4.97;1.40;;;5.00;99.90;;;;;;5045807;28;20213;-56
2021/03/23 02:14:32;;;;;;;3.07;1.57;;;4.80;99.90;;;;;;5022858;28;20302;-53
2021/03/23 02:17:14;;;;;;;5.80;1.87;;;4.90;99.90;;;;;;5021708;28;20176;-49
2021/03/23 02:19:40;;;;;;;4.57;1.93;;;4.90;99.90;;;;;;5031449;28;20191;-50
2021/03/23 02:22:20;;;;;;;2.30;1.93;;;4.90;99.90;;;;;;5044991;28;20195;-55
2021/03/23 02:24:45;;;;;;;5.60;2.10;;;4.90;99.90;;;;;;5044165;28;20266;-52
2021/03/23 02:27:11;;;;;;;3.60;1.90;;;4.80;99.90;;;;;;5039609;28;20202;-52
2021/03/23 02:29:37;;;;;;;3.70;2.00;;;4.90;99.90;;;;;;5038441;28;20294;-48
2021/03/23 02:32:02;;;;;;;2.93;1.57;;;4.90;99.90;;;;;;5039030;28;20186;-50
2021/03/23 02:34:28;;;;;;;6.50;2.17;;;4.90;99.90;;;;;;5039347;28;20194;-48
2021/03/23 02:36:54;;;;;;;7.33;2.33;;;4.90;99.90;;;;;;5054761;28;20178;-53
2021/03/23 02:39:26;;;;;;;2.63;2.10;;;5.00;99.90;;;;;;5054174;28;20840;-51
2021/03/23 02:41:53;;;;;;;4.93;1.80;;;4.90;99.90;;;;;;5047954;28;20315;-54
2021/03/23 02:44:19;;;;;;;3.23;2.10;;;4.90;99.90;;;;;;5050428;28;20496;-48
2021/03/23 02:46:44;;;;;;;5.80;1.77;;;4.90;99.90;;;;;;5023469;28;20207;-52
2021/03/23 02:49:10;;;;;;;3.93;1.90;;;4.90;99.90;;;;;;5010697;28;20197;-48
2021/03/23 02:51:36;;;;;;;6.77;2.10;;;5.00;99.90;;;;;;5053654;28;20171;-48
2021/03/23 02:54:02;;;;;;;5.10;2.73;;;4.90;99.90;;;;;;5060084;28;20209;-55
2021/03/23 02:56:28;;;;;;;2.77;2.00;;;4.80;99.90;;;;;;5063035;28;20187;-52
2021/03/23 02:58:53;;;;;;;5.10;1.63;;;5.00;99.90;;;;;;5060161;28;20201;-54
2021/03/23 03:01:19;;;;;;;3.33;1.77;;;5.10;99.90;;;;;;5037248;28;20350;-48
2021/03/23 03:03:44;;;;;;;2.97;1.70;;;5.10;99.90;;;;;;5043427;28;20624;-49
2021/03/23 03:06:11;;;;;;;7.80;1.90;;;5.00;99.90;;;;;;5036082;28;20333;-51
2021/03/23 03:08:37;;;;;;;7.00;2.20;;;5.00;99.90;;;;;;5056519;28;20210;-55
2021/03/23 03:11:04;;;;;;;2.87;1.80;;;4.90;99.90;;;;;;5051982;28;20296;-56
2021/03/23 03:13:29;;;;;;;4.30;2.20;;;5.00;99.90;;;;;;5064333;28;20163;-50
2021/03/23 03:15:56;;;;;;;2.80;2.10;;;5.00;99.90;;;;;;5041875;28;20184;-56
2021/03/23 03:18:24;;;;;;;3.07;1.87;;;5.00;99.90;;;;;;5022817;28;20196;-51
2021/03/23 03:20:50;;;;;;;4.17;1.80;;;5.00;99.90;;;;;;5024142;28;20596;-55
2021/03/23 03:23:17;;;;;;;4.03;2.10;;;5.00;99.90;;;;;;5052998;28;20871;-53
2021/03/23 03:25:43;;;;;;;5.97;2.20;;;5.00;99.90;;;;;;5064032;28;20190;-50
2021/03/23 03:28:09;;;;;;;5.70;1.73;;;4.80;99.90;;;;;;5059852;28;20486;-53
2021/03/23 03:30:37;;;;;;;2.97;2.10;;;4.90;99.90;;;;;;5063683;28;20171;-51
2021/03/23 03:33:05;;;;;;;3.03;1.83;;;5.00;99.90;;;;;;5037942;28;20731;-54
2021/03/23 03:35:33;;;;;;;5.83;1.77;;;5.00;99.90;;;;;;5035293;28;20200;-53
2021/03/23 03:37:59;;;;;;;1.80;1.67;;;4.90;99.90;;;;;;5049534;28;20253;-53
2021/03/23 03:40:30;;;;;;;3.43;1.60;;;4.90;99.90;;;;;;5051467;28;20171;-49
2021/03/23 03:42:56;;;;;;;3.93;1.80;;;5.00;99.90;;;;;;5061518;28;20627;-53
2021/03/23 03:45:23;;;;;;;3.70;1.43;;;4.90;99.90;;;;;;5061157;28;20252;-49
2021/03/23 03:47:52;;;;;;;3.60;1.53;;;4.90;99.90;;;;;;5027035;28;20575;-55
2021/03/23 03:50:18;;;;;;;3.00;1.67;;;4.90;99.90;;;;;;5014478;28;21278;-55
2021/03/23 03:52:44;;;;;;;2.23;1.63;;;5.00;99.90;;;;;;5055507;28;20182;-52
2021/03/23 03:55:13;;;;;;;2.57;1.60;;;5.10;99.90;;;;;;5059987;28;20396;-49
2021/03/23 03:57:39;;;;;;;4.03;2.20;;;5.00;99.90;;;;;;5063213;28;20191;-49
2021/03/23 04:00:06;;;;;;;6.57;2.37;;;5.00;99.90;;;;;;5058702;28;20175;-55
2021/03/23 04:02:37;;;;;;;4.43;2.10;;;5.00;99.90;;;;;;5051520;28;20759;-50
2021/03/23 04:05:05;;;;;;;3.53;2.17;;;5.00;99.90;;;;;;5039466;28;20278;-56
2021/03/23 04:07:31;;;;;;;2.10;1.80;;;5.00;99.90;;;;;;5035501;28;20218;-51
2021/03/23 04:09:57;;;;;;;5.80;2.40;;;5.00;99.90;;;;;;5049223;28;20184;-56
2021/03/23 04:12:23;;;;;;;3.77;2.27;;;5.00;99.90;;;;;;5062175;28;20918;-50
2021/03/23 04:14:49;;;;;;;6.00;2.20;;;5.00;99.90;;;;;;5066378;28;20648;-55
2021/03/23 04:17:14;;;;;;;2.37;1.80;;;5.00;99.90;;;;;;5058970;28;20210;-53
2021/03/23 04:19:40;;;;;;;1.70;1.43;;;5.00;99.90;;;;;;5038182;28;20202;-49
2021/03/23 04:22:05;;;;;;;3.47;1.90;;;4.90;99.90;;;;;;5035174;28;20199;-50
2021/03/23 04:24:31;;;;;;;3.17;1.70;;;5.00;99.90;;;;;;5051607;28;20171;-52
2021/03/23 04:26:57;;;;;;;3.53;2.03;;;5.00;99.90;;;;;;5066761;28;20199;-49
2021/03/23 04:29:22;;;;;;;4.50;2.63;;;5.00;99.90;;;;;;5063985;28;20781;-55
2021/03/23 04:31:48;;;;;;;5.67;2.70;;;5.00;99.90;;;;;;5065176;28;20202;-49
2021/03/23 04:34:15;;;;;;;5.07;2.50;;;5.00;99.90;;;;;;5029706;28;20219;-55
2021/03/23 04:36:41;;;;;;;6.03;2.70;;;4.90;99.90;;;;;;5022571;28;20175;-49
2021/03/23 04:39:10;;;;;;;3.03;2.20;;;4.90;99.90;;;;;;5037349;28;20207;-51
2021/03/23 04:41:38;;;;;;;5.07;2.60;;;5.00;99.90;;;;;;5053857;28;20201;-50
2021/03/23 04:44:04;;;;;;;4.10;2.50;;;5.10;99.90;;;;;;5066062;28;20179;-51
2021/03/23 04:46:29;;;;;;;4.73;2.73;;;5.00;99.90;;;;;;5062179;28;20190;-51
2021/03/23 04:48:56;;;;;;;7.30;2.57;;;4.90;99.90;;;;;;5055908;28;20567;-49
2021/03/23 04:51:24;;;;;;;2.77;2.30;;;5.10;99.90;;;;;;5043926;28;20195;-53
2021/03/23 04:54:07;;;;;;;6.30;2.60;;;5.00;99.90;;;;;;5034912;28;20206;-53
2021/03/23 04:56:38;;;;;;;4.77;3.10;;;5.00;99.90;;;;;;5052275;28;20183;-52
2021/03/23 04:59:05;;;;;;;4.57;2.90;;;5.00;99.90;;;;;;5065977;28;20213;-52
2021/03/23 05:01:30;;;;;;;5.13;2.80;;;5.10;99.90;;;;;;5042774;28;20187;-52
2021/03/23 05:03:58;;;;;;;10.47;3.77;;;5.00;99.90;;;;;;5045362;28;20180;-53
2021/03/23 05:06:25;;;;;;;6.93;3.40;;;5.00;99.90;;;;;;5026581;28;20209;-54
2021/03/23 05:08:51;;;;;;;5.93;3.60;;;5.10;99.90;;;;;;5048247;28;20206;-54
2021/03/23 05:11:21;;;;;;;5.60;3.20;;;5.10;99.90;;;;;;5042317;28;20175;-52
2021/03/23 05:13:47;;;;;;;8.60;3.47;;;5.00;99.90;;;;;;5047615;28;20170;-52
2021/03/23 05:16:13;;;;;;;10.40;3.97;;;5.10;99.90;;;;;;5064793;28;20445;-48
2021/03/23 05:18:39;;;;;;;6.43;3.43;;;5.00;99.90;;;;;;5061759;28;20252;-53
2021/03/23 05:21:05;;;;;;;4.17;3.40;;;5.00;99.90;;;;;;5027880;28;20196;-54
2021/03/23 05:23:32;;;;;;;5.47;3.63;;;5.10;99.90;;;;;;5025605;28;20190;-50
2021/03/23 05:25:57;;;;;;;4.83;3.43;;;5.10;99.90;;;;;;5046823;28;20713;-51
2021/03/23 05:28:23;;;;;;;6.90;3.37;;;5.10;99.90;;;;;;5047877;28;20222;-52
2021/03/23 05:30:50;;;;;;;9.57;3.50;;;5.10;99.90;;;;;;5063574;28;20210;-49
2021/03/23 05:33:16;;;;;;;5.93;3.17;;;5.10;99.90;;;;;;5063219;28;20308;-54
2021/03/23 05:35:42;;;;;;;7.13;4.03;;;5.00;99.90;;;;;;5053115;28;20198;-52
2021/03/23 05:38:09;;;;;;;8.00;4.27;;;5.10;99.90;;;;;;5039363;28;20289;-51
2021/03/23 05:40:41;;;;;;;6.33;3.50;;;5.10;99.90;;;;;;5036776;28;20187;-51
2021/03/23 05:43:29;;;;;;;10.83;5.07;;;5.10;99.90;;;;;;5046547;28;20171;-53
2021/03/23 05:46:02;;;;;;;7.73;4.00;;;5.00;99.90;;;;;;5015663;28;20183;-54
2021/03/23 05:48:32;;;;;;;9.90;4.90;;;5.10;99.90;;;;;;5043933;28;20257;-54
2021/03/23 05:51:21;;;;;;;6.93;4.63;;;5.00;99.90;;;;;;5036618;28;20257;-54
2021/03/23 05:54:01;;;;;;;7.47;4.00;;;5.00;99.90;;;;;;5030479;28;20183;-55
2021/03/23 05:56:28;;;;;;;6.07;4.07;;;5.10;99.90;;;;;;5037867;28;20197;-55
2021/03/23 05:59:02;;;;;;;10.23;4.57;;;5.00;99.90;;;;;;5036457;28;20217;-55
2021/03/23 06:01:33;;;;;;;6.73;4.70;;;5.10;99.90;;;;;;5061057;28;20190;-52
2021/03/23 06:04:14;;;;;;;8.00;4.10;;;5.10;99.90;;;;;;5060065;28;20253;-51
2021/03/23 06:07:03;;;;;;;6.77;4.43;;;5.00;99.90;;;;;;5045382;28;20187;-53
2021/03/23 06:09:38;;;;;;;5.27;4.03;;;5.10;99.90;;;;;;5042613;28;20193;-51
2021/03/23 06:12:16;;;;;;;6.03;3.83;;;5.10;99.90;;;;;;5039358;28;20198;-53
2021/03/23 06:15:16;;;;;;;10.00;5.10;;;5.10;99.90;;;;;;5050387;28;20193;-53
2021/03/23 06:17:42;;;;;;;11.80;5.37;;;5.20;99.90;;;;;;5039713;28;20286;-54
2021/03/23 06:20:32;;;;;;;11.97;4.43;;;5.10;99.90;;;;;;5038439;28;20947;-53
2021/03/23 06:23:35;;;;;;;12.63;5.20;;;5.10;99.90;;;;;;5030881;28;20240;-53
2021/03/23 06:26:22;;;;;;;10.57;5.00;;;5.10;99.90;;;;;;5033943;28;20194;-53
2021/03/23 06:29:03;;;;;;;7.20;4.17;;;5.20;99.90;;;;;;5028533;28;20297;-53
2021/03/23 06:32:13;;;;;;;10.80;4.60;;;5.20;99.90;;;;;;5049976;28;20222;-52
2021/03/23 06:34:39;;;;;;;8.53;4.70;;;5.20;99.90;;;;;;5052126;28;20184;-54
2021/03/23 06:37:32;;;;;;;9.33;5.40;;;5.30;99.90;;;;;;5046988;28;20272;-52
2021/03/23 06:39:58;;;;;;;12.03;5.17;;;5.20;99.90;;;;;;5028074;28;20324;-53
2021/03/23 06:42:34;;;;;;;11.10;5.10;;;5.20;99.90;;;;;;5037640;28;20208;-53
2021/03/23 06:45:21;;;;;;;10.13;5.10;;;5.30;99.90;;;;;;5020676;28;20288;-53
2021/03/23 06:47:48;;;;;;;11.50;5.80;;;5.30;99.90;;;;;;5030307;28;20210;-53
2021/03/23 06:50:27;;;;;;;9.07;5.13;;;5.30;99.90;;;;;;5041423;28;20164;-52
2021/03/23 06:53:04;;;;;;;11.93;5.23;;;5.40;99.90;;;;;;5033505;28;20179;-54
2021/03/23 06:55:29;;;;;;;12.37;6.03;;;5.30;99.90;;;;;;5038160;28;20262;-52
2021/03/23 06:57:55;;;;;;;10.03;5.67;;;5.40;99.90;;;;;;5038956;28;20300;-53
2021/03/23 07:00:32;;;;;;;18.37;6.73;;;5.30;99.90;;;;;;5028047;28;20198;-52
2021/03/23 07:03:14;;;;;;;14.10;7.07;;;5.20;99.90;;;;;;5037630;28;20182;-54
2021/03/23 07:05:43;;;;;;;15.23;6.93;;;5.40;99.90;;;;;;5042841;28;20194;-55
2021/03/23 07:08:09;;;;;;;15.43;6.87;;;5.40;99.90;;;;;;5036873;28;20222;-53
2021/03/23 07:10:41;;;;;;;9.80;6.53;;;5.40;99.90;;;;;;5039522;28;20592;-51
2021/03/23 07:13:28;;;;;;;12.33;6.73;;;5.40;99.90;;;;;;5060496;28;20174;-53
2021/03/23 07:16:01;;;;;;;14.60;7.00;;;5.50;99.90;;;;;;5033496;28;20195;-56
2021/03/23 07:18:29;;;;;;;11.73;6.90;;;5.30;99.90;;;;;;5033910;28;20218;-53
2021/03/23 07:21:02;;;;;;;11.60;7.53;;;5.50;99.90;;;;;;5036568;28;20179;-54
2021/03/23 07:23:37;;;;;;;14.03;7.47;;;5.40;99.90;;;;;;5037871;28;20218;-52
2021/03/23 07:26:26;;;;;;;15.83;8.40;;;5.60;99.90;;;;;;5021335;28;20284;-49
2021/03/23 07:28:52;;;;;;;13.50;8.00;;;5.50;99.90;;;;;;5020404;28;20204;-55
2021/03/23 07:31:34;;;;;;;14.50;8.43;;;5.40;99.90;;;;;;5031870;28;20239;-53
2021/03/23 07:34:09;;;;;;;15.27;8.57;;;5.50;99.90;;;;;;5044565;28;20251;-54
2021/03/23 07:36:53;;;;;;;18.60;8.77;;;5.50;99.90;;;;;;5040454;28;20179;-50
2021/03/23 07:39:47;;;;;;;14.87;9.23;;;5.50;99.90;;;;;;5042441;28;20198;-49
2021/03/23 07:42:38;;;;;;;16.37;9.50;;;5.50;99.90;;;;;;5029960;28;20172;-53
2021/03/23 07:45:20;;;;;;;12.93;8.80;;;5.60;99.90;;;;;;5036794;28;22170;-53
2021/03/23 07:48:17;;;;;;;18.67;9.30;;;5.60;99.90;;;;;;5037205;28;20343;-54
2021/03/23 07:50:48;;;;;;;16.40;9.67;;;5.60;99.90;;;;;;5047671;28;20207;-54
2021/03/23 07:53:37;;;;;;;19.60;10.80;;;5.50;99.90;;;;;;5042887;28;20177;-50
2021/03/23 07:56:26;;;;;;;17.13;10.17;;;5.60;99.90;;;;;;5035493;28;22832;-56
2021/03/23 07:59:00;;;;;;;27.57;11.40;;;5.60;99.90;;;;;;5036785;28;20187;-53
2021/03/23 08:01:41;;;;;;;17.50;10.37;;;5.60;99.90;;;;;;5030546;28;20221;-53
2021/03/23 08:04:39;;;;;;;23.50;10.97;;;5.60;99.90;;;;;;5041328;28;20183;-55
2021/03/23 08:07:23;;;;;;;21.30;12.17;;;5.60;99.90;;;;;;5037779;28;20666;-55
2021/03/23 08:10:14;;;;;;;22.93;12.00;;;5.60;99.90;;;;;;5048158;28;20551;-53
2021/03/23 08:13:04;;;;;;;22.13;11.50;;;5.70;99.90;;;;;;5050956;28;20187;-53
2021/03/23 08:15:58;;;;;;;29.43;11.60;;;5.70;99.90;;;;;;5049630;28;20292;-53
2021/03/23 08:18:59;;;;;;;23.87;11.27;;;5.70;99.90;;;;;;5038298;28;20203;-52
2021/03/23 08:21:30;;;;;;;23.63;11.97;;;5.70;99.90;;;;;;5024204;28;20248;-50
2021/03/23 08:24:25;;;;;;;21.27;11.70;;;5.70;99.90;;;;;;5047801;28;20175;-51
2021/03/23 08:27:07;;;;;;;22.13;12.80;;;5.70;99.90;;;;;;5047417;28;20597;-49
2021/03/23 08:30:12;;;;;;;20.70;11.97;;;5.80;99.90;;;;;;5018077;28;20318;-55
2021/03/23 08:32:51;;;;;;;22.53;12.00;;;5.70;99.90;;;;;;5031116;28;20724;-55
2021/03/23 08:35:23;;;;;;;19.10;11.57;;;5.70;99.90;;;;;;5042755;28;20270;-50
2021/03/23 08:37:58;;;;;;;21.83;12.40;;;5.70;99.90;;;;;;5048800;28;20198;-53
2021/03/23 08:40:45;;;;;;;19.87;12.33;;;5.80;99.90;;;;;;5044154;28;20589;-52
2021/03/23 08:43:34;;;;;;;21.77;12.30;;;5.70;99.90;;;;;;5036312;28;20190;-50
2021/03/23 08:46:04;;;;;;;24.57;12.50;;;5.70;99.90;;;;;;5036257;28;20289;-50
2021/03/23 08:49:07;;;;;;;20.40;12.83;;;5.70;99.90;;;;;;5050967;28;20676;-56
2021/03/23 08:51:41;;;;;;;17.10;11.53;;;5.80;99.90;;;;;;5033892;28;20191;-51
2021/03/23 08:54:07;;;;;;;24.63;12.77;;;5.80;99.90;;;;;;5041640;28;20205;-52
2021/03/23 08:56:41;;;;;;;25.30;12.57;;;5.70;99.90;;;;;;5043476;28;20182;-55
2021/03/23 08:59:35;;;;;;;21.63;12.27;;;5.80;99.90;;;;;;5030536;28;20249;-51
2021/03/23 09:02:29;;;;;;;23.70;11.60;;;5.80;99.90;;;;;;5029461;28;20206;-55
2021/03/23 09:04:57;;;;;;;21.43;12.90;;;5.90;99.90;;;;;;5043926;28;20241;-52
2021/03/23 09:07:30;;;;;;;20.90;11.30;;;5.90;99.90;;;;;;5037109;28;20207;-51
2021/03/23 09:09:56;;;;;;;20.63;10.97;;;5.90;99.90;;;;;;5043240;28;20187;-51
2021/03/23 09:12:33;;;;;;;23.27;12.53;;;5.90;99.90;;;;;;5044329;28;20167;-50
2021/03/23 09:15:08;;;;;;;23.10;12.37;;;5.90;99.90;;;;;;5037515;28;20194;-54
2021/03/23 09:18:05;;;;;;;20.27;12.67;;;5.90;99.90;;;;;;5036830;28;20207;-51
2021/03/23 09:20:30;;;;;;;20.20;12.13;;;5.90;99.90;;;;;;5035361;28;20237;-50
2021/03/23 09:23:15;;;;;;;19.70;11.77;;;5.90;99.90;;;;;;5040371;28;20179;-54
2021/03/23 09:25:48;;;;;;;23.77;11.80;;;5.90;99.90;;;;;;5046551;28;20211;-50
2021/03/23 09:28:39;;;;;;;18.93;12.63;;;5.90;99.90;;;;;;5041791;28;20313;-53
2021/03/23 09:31:17;;;;;;;21.37;12.40;;;5.90;99.90;;;;;;5039606;28;20183;-53
2021/03/23 09:33:49;;;;;;;25.47;13.67;;;5.90;99.90;;;;;;5037439;28;20225;-50
2021/03/23 09:36:30;;;;;;;21.83;12.97;;;5.90;99.90;;;;;;5041633;28;20219;-53
2021/03/23 09:39:16;;;;;;;20.80;11.60;;;5.90;99.90;;;;;;5042989;28;20210;-54
2021/03/23 09:41:51;;;;;;;21.60;12.67;;;5.90;99.90;;;;;;5035167;28;20203;-54
2021/03/23 09:44:16;;;;;;;18.97;12.60;;;6.00;99.90;;;;;;5048715;28;20170;-49
2021/03/23 09:46:56;;;;;;;18.13;12.10;;;6.00;99.90;;;;;;5035511;28;20210;-54
2021/03/23 09:49:33;;;;;;;20.53;12.37;;;6.00;99.90;;;;;;5035536;28;20377;-53
2021/03/23 09:52:03;;;;;;;23.47;14.00;;;6.00;99.90;;;;;;5028725;28;20240;-53
2021/03/23 09:54:32;;;;;;;23.70;12.50;;;6.00;99.90;;;;;;5026381;28;20196;-55
2021/03/23 09:57:00;;;;;;;25.30;11.83;;;6.00;99.90;;;;;;5028368;28;20931;-52
2021/03/23 09:59:29;;;;;;;22.73;11.93;;;6.00;99.90;;;;;;5053722;28;20221;-51
2021/03/23 10:02:04;;;;;;;21.03;12.07;;;6.20;99.90;;;;;;5033623;28;20180;-52
2021/03/23 10:04:39;;;;;;;21.27;13.67;;;6.20;99.90;;;;;;5039853;28;20194;-55
2021/03/23 10:07:08;;;;;;;22.80;13.27;;;6.20;99.90;;;;;;5043437;28;20220;-53
2021/03/23 10:09:37;;;;;;;18.30;11.87;;;6.10;99.90;;;;;;5035172;28;20199;-56
2021/03/23 10:12:04;;;;;;;24.37;13.40;;;6.00;99.90;;;;;;5048700;28;20183;-53
2021/03/23 10:14:30;;;;;;;22.40;13.30;;;6.20;99.90;;;;;;5038823;28;20238;-52
2021/03/23 10:17:08;;;;;;;23.60;12.87;;;6.30;99.90;;;;;;5052744;28;20170;-52
2021/03/23 10:19:37;;;;;;;22.63;13.77;;;6.10;99.90;;;;;;5031323;28;20278;-54
2021/03/23 10:22:13;;;;;;;22.77;13.50;;;6.10;99.90;;;;;;5038325;28;20197;-54
2021/03/23 10:24:40;;;;;;;22.20;12.63;;;6.30;99.90;;;;;;5037867;28;20187;-53
2021/03/23 10:27:34;;;;;;;26.00;13.23;;;6.30;99.90;;;;;;5042485;28;20882;-51
2021/03/23 10:30:18;;;;;;;21.47;13.40;;;6.20;99.90;;;;;;5016102;28;20208;-53
2021/03/23 10:32:47;;;;;;;27.17;13.87;;;6.30;99.90;;;;;;5051958;28;20174;-53
2021/03/23 10:35:50;;;;;;;19.83;11.83;;;6.10;99.90;;;;;;5032995;28;20202;-52
2021/03/23 10:38:22;;;;;;;21.33;13.00;;;6.10;99.90;;;;;;5034919;28;20210;-56
2021/03/23 10:40:50;;;;;;;26.40;13.37;;;6.10;99.90;;;;;;5023571;28;20219;-50
2021/03/23 10:43:35;;;;;;;25.17;14.97;;;6.30;99.90;;;;;;5043276;28;20187;-50
2021/03/23 10:46:23;;;;;;;25.00;13.47;;;6.40;99.90;;;;;;5038955;28;20195;-52
2021/03/23 10:48:49;;;;;;;30.20;14.53;;;6.40;99.90;;;;;;5039707;28;20214;-53
2021/03/23 10:51:21;;;;;;;30.60;14.23;;;6.30;99.90;;;;;;5030615;28;20237;-48
2021/03/23 10:54:06;;;;;;;25.00;14.30;;;6.30;99.90;;;;;;5028028;28;20214;-51
2021/03/23 10:56:41;;;;;;;26.80;14.67;;;6.40;99.90;;;;;;5038548;28;20191;-55
2021/03/23 10:59:31;;;;;;;23.73;14.03;;;6.40;99.90;;;;;;5042701;28;21064;-51
2021/03/23 11:02:08;;;;;;;25.30;15.03;;;6.50;99.90;;;;;;5041703;28;20172;-53
2021/03/23 11:04:37;;;;;;;24.90;14.10;;;6.50;99.90;;;;;;5039205;28;20198;-55
2021/03/23 11:07:24;;;;;;;29.63;15.53;;;6.50;99.90;;;;;;5043451;28;20191;-53
2021/03/23 11:09:58;;;;;;;23.47;13.40;;;6.50;99.90;;;;;;5035648;28;20181;-52
2021/03/23 11:12:24;;;;;;;29.97;15.80;;;6.50;99.90;;;;;;5040128;28;20186;-51
2021/03/23 11:14:50;;;;;;;27.00;14.53;;;6.40;99.90;;;;;;5048395;28;20288;-53
2021/03/23 11:17:20;;;;;;;28.37;14.47;;;6.50;99.90;;;;;;5040734;28;20289;-51
2021/03/23 11:19:50;;;;;;;23.27;13.00;;;6.50;99.90;;;;;;5040325;28;20187;-54
2021/03/23 11:22:23;;;;;;;30.30;14.43;;;6.60;99.90;;;;;;5034122;28;20199;-55
2021/03/23 11:24:48;;;;;;;23.10;13.83;;;6.60;99.90;;;;;;5038091;28;20183;-52
2021/03/23 11:27:14;;;;;;;22.77;12.83;;;6.70;99.90;;;;;;5033684;28;20275;-51
2021/03/23 11:29:40;;;;;;;21.83;14.03;;;6.70;99.90;;;;;;5045384;28;20212;-52
2021/03/23 11:32:06;;;;;;;23.63;12.83;;;6.70;99.90;;;;;;5045761;28;20180;-50
2021/03/23 11:34:31;;;;;;;31.20;13.83;;;6.80;99.90;;;;;;5046015;28;20179;-54
2021/03/23 11:36:57;;;;;;;28.63;14.23;;;6.80;99.90;;;;;;5027317;28;20225;-50
2021/03/23 11:39:23;;;;;;;28.37;14.23;;;6.80;99.90;;;;;;5042647;28;20175;-50
2021/03/23 11:42:01;;;;;;;31.03;15.90;;;6.90;99.90;;;;;;5031236;28;20267;-48
2021/03/23 11:44:31;;;;;;;26.20;14.57;;;6.90;99.90;;;;;;5030531;28;20191;-54
2021/03/23 11:47:19;;;;;;;25.53;14.43;;;6.90;99.90;;;;;;5039996;28;20191;-51
2021/03/23 11:50:04;;;;;;;26.07;14.53;;;7.00;99.90;;;;;;5054260;28;20215;-54
2021/03/23 11:52:30;;;;;;;24.60;13.70;;;7.00;99.90;;;;;;5050091;28;20561;-54
2021/03/23 11:54:57;;;;;;;27.93;15.00;;;7.00;99.90;;;;;;5051356;28;20167;-51
2021/03/23 11:57:23;;;;;;;27.53;14.50;;;7.00;99.90;;;;;;5040429;28;20225;-51
2021/03/23 11:59:49;;;;;;;27.10;15.20;;;7.00;99.90;;;;;;5038499;28;20191;-49
2021/03/23 12:02:15;;;;;;;23.53;13.07;;;7.10;99.90;;;;;;5050045;28;20648;-47
2021/03/23 12:04:41;;;;;;;30.73;13.87;;;7.10;99.90;;;;;;5045773;28;20187;-52
2021/03/23 12:07:22;;;;;;;22.80;12.90;;;;;;;;;;5032945;28;20415;-48
2021/03/23 12:09:52;;;;;;;26.23;14.30;;;7.20;99.90;;;;;;5042810;28;20175;-52
2021/03/23 12:12:53;;;;;;;27.40;14.67;;;7.30;99.90;;;;;;5043795;28;20205;-47
2021/03/23 12:15:39;;;;;;;26.23;13.43;;;7.30;99.90;;;;;;5045223;28;20245;-49
2021/03/23 12:18:09;;;;;;;27.53;14.50;;;7.40;99.90;;;;;;5036320;28;20226;-47
2021/03/23 12:20:36;;;;;;;23.07;13.63;;;7.40;99.90;;;;;;5043486;28;20193;-51
2021/03/23 12:23:04;;;;;;;23.90;12.60;;;7.40;99.90;;;;;;5055280;28;20816;-50
2021/03/23 12:25:29;;;;;;;25.80;13.17;;;7.40;99.90;;;;;;5054460;28;20182;-48
2021/03/23 12:27:56;;;;;;;21.30;13.03;;;7.40;99.90;;;;;;5043285;28;20426;-48
2021/03/23 12:30:23;;;;;;;26.27;12.73;;;7.40;99.90;;;;;;5048782;28;20182;-49
2021/03/23 12:32:50;;;;;;;21.97;12.27;;;7.40;99.90;;;;;;5039054;28;20186;-51
2021/03/23 12:35:20;;;;;;;28.27;13.70;;;7.40;99.90;;;;;;5053881;28;20258;-49
2021/03/23 12:37:48;;;;;;;23.40;13.53;;;7.40;99.90;;;;;;5032576;28;20618;-49
2021/03/23 12:40:16;;;;;;;24.60;12.87;;;7.30;99.90;;;;;;5050566;28;20185;-50
2021/03/23 12:42:42;;;;;;;22.80;13.27;;;7.30;99.90;;;;;;5044596;28;20179;-53
2021/03/23 12:45:10;;;;;;;24.83;14.00;;;7.30;99.90;;;;;;5051234;28;20201;-55
2021/03/23 12:47:35;;;;;;;28.37;13.77;;;7.40;99.90;;;;;;5056124;28;20217;-49
2021/03/23 12:50:03;;;;;;;25.93;14.70;;;7.40;99.90;;;;;;5046479;28;20183;-53
2021/03/23 12:52:30;;;;;;;29.90;15.30;;;7.40;99.90;;;;;;5051603;28;20183;-55
2021/03/23 12:54:57;;;;;;;28.43;15.17;;;7.50;99.90;;;;;;5044615;28;20187;-47
2021/03/23 12:57:26;;;;;;;27.97;15.40;;;7.50;99.90;;;;;;5056259;28;20203;-49
2021/03/23 12:59:54;;;;;;;25.07;15.23;;;7.50;99.90;;;;;;5040482;28;20191;-52
2021/03/23 13:02:24;;;;;;;27.13;15.13;;;7.50;99.90;;;;;;5056907;28;20187;-47
2021/03/23 13:04:50;;;;;;;25.87;15.10;;;7.50;99.90;;;;;;5043304;28;20168;-52
2021/03/23 13:07:30;;;;;;;27.53;15.00;;;7.50;99.90;;;;;;5045875;28;20211;-53
2021/03/23 13:09:56;;;;;;;25.27;15.43;;;7.40;99.90;;;;;;5026505;28;24666;-51
2021/03/23 13:12:26;;;;;;;27.77;15.73;;;7.40;99.90;;;;;;5047501;28;20217;-52
2021/03/23 13:14:52;;;;;;;27.33;17.37;;;7.40;99.90;;;;;;5043123;28;20236;-53